sensor_id;sensor_type;location;lat;lon;timestamp;pressure;altitude;pressure_sealevel;temperature;humidity
5651;BME280;40241;52.684;9.758;2022-07-11T00:01:43;101978.22;;;17.91;54.96
5651;BME280;40241;52.684;9.758;2022-07-11T00:04:09;101982.53;;;17.92;55.21
5651;BME280;40241;52.684;9.758;2022-07-11T00:06:34;101984.78;;;17.94;55.21
5651;BME280;40241;52.684;9.758;2022-07-11T00:09:00;101967.56;;;17.95;55.35
5651;BME280;40241;52.684;9.758;2022-07-11T00:11:25;101975.16;;;17.95;55.35
5651;BME280;40241;52.684;9.758;2022-07-11T00:13:51;101973.41;;;17.92;55.37
5651;BME280;40241;52.684;9.758;2022-07-11T00:16:16;101976.72;;;17.90;55.59
5651;BME280;40241;52.684;9.758;2022-07-11T00:18:41;101970.38;;;17.90;55.56
5651;BME280;40241;52.684;9.758;2022-07-11T00:21:07;101972.38;;;17.89;55.66
5651;BME280;40241;52.684;9.758;2022-07-11T00:23:32;101971.13;;;17.90;55.58
5651;BME280;40241;52.684;9.758;2022-07-11T00:25:57;101967.31;;;17.93;55.70
5651;BME280;40241;52.684;9.758;2022-07-11T00:28:23;101966.56;;;17.93;55.64
5651;BME280;40241;52.684;9.758;2022-07-11T00:30:48;101969.59;;;17.89;55.66
5651;BME280;40241;52.684;9.758;2022-07-11T00:33:14;101961.25;;;17.95;55.77
5651;BME280;40241;52.684;9.758;2022-07-11T00:35:39;101963.50;;;17.96;55.84
5651;BME280;40241;52.684;9.758;2022-07-11T00:38:04;101963.50;;;17.96;55.87
5651;BME280;40241;52.684;9.758;2022-07-11T00:40:30;101961.97;;;17.95;55.76
5651;BME280;40241;52.684;9.758;2022-07-11T00:42:55;101957.69;;;17.94;55.83
5651;BME280;40241;52.684;9.758;2022-07-11T00:45:21;101963.03;;;17.92;55.75
5651;BME280;40241;52.684;9.758;2022-07-11T00:47:46;101950.13;;;17.89;55.85
5651;BME280;40241;52.684;9.758;2022-07-11T00:50:13;101965.81;;;17.87;55.96
5651;BME280;40241;52.684;9.758;2022-07-11T00:52:40;101962.03;;;17.84;56.05
5651;BME280;40241;52.684;9.758;2022-07-11T00:55:06;101961.53;;;17.80;56.01
5651;BME280;40241;52.684;9.758;2022-07-11T00:57:33;101959.03;;;17.77;56.18
5651;BME280;40241;52.684;9.758;2022-07-11T00:59:59;101954.75;;;17.70;56.30
5651;BME280;40241;52.684;9.758;2022-07-11T01:02:25;101960.06;;;17.63;56.43
5651;BME280;40241;52.684;9.758;2022-07-11T01:04:50;101957.53;;;17.59;56.42
5651;BME280;40241;52.684;9.758;2022-07-11T01:07:15;101957.03;;;17.61;56.54
5651;BME280;40241;52.684;9.758;2022-07-11T01:09:41;101946.16;;;17.63;56.65
5651;BME280;40241;52.684;9.758;2022-07-11T01:12:07;101942.88;;;17.64;56.49
5651;BME280;40241;52.684;9.758;2022-07-11T01:14:32;101953.47;;;17.66;56.47
5651;BME280;40241;52.684;9.758;2022-07-11T01:16:57;101948.69;;;17.66;56.39
5651;BME280;40241;52.684;9.758;2022-07-11T01:19:23;101941.09;;;17.67;56.42
5651;BME280;40241;52.684;9.758;2022-07-11T01:21:49;101942.88;;;17.64;56.59
5651;BME280;40241;52.684;9.758;2022-07-11T01:24:16;101944.41;;;17.60;56.67
5651;BME280;40241;52.684;9.758;2022-07-11T01:26:43;101949.44;;;17.61;56.73
5651;BME280;40241;52.684;9.758;2022-07-11T01:29:11;101947.19;;;17.60;56.67
5651;BME280;40241;52.684;9.758;2022-07-11T01:31:41;101944.88;;;17.58;56.95
5651;BME280;40241;52.684;9.758;2022-07-11T01:34:07;101945.94;;;17.55;56.85
5651;BME280;40241;52.684;9.758;2022-07-11T01:36:32;101942.91;;;17.53;56.68
5651;BME280;40241;52.684;9.758;2022-07-11T01:38:58;101955.28;;;17.52;56.87
5651;BME280;40241;52.684;9.758;2022-07-11T01:41:23;101945.44;;;17.51;56.94
5651;BME280;40241;52.684;9.758;2022-07-11T01:43:49;101936.56;;;17.53;57.07
5651;BME280;40241;52.684;9.758;2022-07-11T01:46:14;101941.63;;;17.54;57.04
5651;BME280;40241;52.684;9.758;2022-07-11T01:48:41;101936.28;;;17.56;57.12
5651;BME280;40241;52.684;9.758;2022-07-11T01:51:07;101937.81;;;17.57;57.02
5651;BME280;40241;52.684;9.758;2022-07-11T01:53:32;101938.59;;;17.58;57.07
5651;BME280;40241;52.684;9.758;2022-07-11T01:55:58;101944.63;;;17.56;57.05
5651;BME280;40241;52.684;9.758;2022-07-11T01:58:23;101938.06;;;17.59;57.16
5651;BME280;40241;52.684;9.758;2022-07-11T02:00:48;101934.75;;;17.61;57.20
5651;BME280;40241;52.684;9.758;2022-07-11T02:03:14;101938.56;;;17.63;57.07
5651;BME280;40241;52.684;9.758;2022-07-11T02:05:39;101940.34;;;17.61;57.39
5651;BME280;40241;52.684;9.758;2022-07-11T02:08:06;101940.84;;;17.59;57.41
5651;BME280;40241;52.684;9.758;2022-07-11T02:10:45;101931.50;;;17.62;57.35
5651;BME280;40241;52.684;9.758;2022-07-11T02:13:12;101935.25;;;17.65;57.38
5651;BME280;40241;52.684;9.758;2022-07-11T02:15:38;101931.22;;;17.66;57.42
5651;BME280;40241;52.684;9.758;2022-07-11T02:18:04;101931.97;;;17.66;57.49
5651;BME280;40241;52.684;9.758;2022-07-11T02:20:30;101922.88;;;17.66;57.42
5651;BME280;40241;52.684;9.758;2022-07-11T02:22:56;101927.19;;;17.67;57.42
5651;BME280;40241;52.684;9.758;2022-07-11T02:25:22;101928.16;;;17.69;57.49
5651;BME280;40241;52.684;9.758;2022-07-11T02:27:48;101934.72;;;17.72;57.50
5651;BME280;40241;52.684;9.758;2022-07-11T02:30:13;101925.13;;;17.73;57.54
5651;BME280;40241;52.684;9.758;2022-07-11T02:32:39;101923.59;;;17.72;57.48
5651;BME280;40241;52.684;9.758;2022-07-11T02:35:05;101931.69;;;17.75;57.35
5651;BME280;40241;52.684;9.758;2022-07-11T02:37:30;101927.63;;;17.76;57.63
5651;BME280;40241;52.684;9.758;2022-07-11T02:39:56;101929.66;;;17.76;57.54
5651;BME280;40241;52.684;9.758;2022-07-11T02:42:21;101933.47;;;17.73;57.72
5651;BME280;40241;52.684;9.758;2022-07-11T02:44:47;101937.28;;;17.70;57.81
5651;BME280;40241;52.684;9.758;2022-07-11T02:47:12;101939.28;;;17.69;57.72
5651;BME280;40241;52.684;9.758;2022-07-11T02:49:41;101944.84;;;17.69;57.81
5651;BME280;40241;52.684;9.758;2022-07-11T02:52:06;101941.34;;;17.69;57.56
5651;BME280;40241;52.684;9.758;2022-07-11T02:54:32;101944.84;;;17.69;57.68
5651;BME280;40241;52.684;9.758;2022-07-11T02:56:57;101949.94;;;17.71;58.04
5651;BME280;40241;52.684;9.758;2022-07-11T02:59:23;101940.06;;;17.70;57.84
5651;BME280;40241;52.684;9.758;2022-07-11T03:01:49;101934.50;;;17.70;57.96
5651;BME280;40241;52.684;9.758;2022-07-11T03:04:15;101940.81;;;17.70;57.84
5651;BME280;40241;52.684;9.758;2022-07-11T03:06:41;101940.81;;;17.70;57.89
5651;BME280;40241;52.684;9.758;2022-07-11T03:09:07;101946.66;;;17.67;57.98
5651;BME280;40241;52.684;9.758;2022-07-11T03:11:33;101949.16;;;17.65;58.14
5651;BME280;40241;52.684;9.758;2022-07-11T03:13:59;101944.13;;;17.63;58.18
5651;BME280;40241;52.684;9.758;2022-07-11T03:16:28;101945.91;;;17.66;58.12
5651;BME280;40241;52.684;9.758;2022-07-11T03:18:55;101958.53;;;17.67;58.06
5651;BME280;40241;52.684;9.758;2022-07-11T03:21:21;101952.97;;;17.67;58.19
5651;BME280;40241;52.684;9.758;2022-07-11T03:23:46;101945.91;;;17.66;58.24
5651;BME280;40241;52.684;9.758;2022-07-11T03:26:12;101952.72;;;17.65;58.19
5651;BME280;40241;52.684;9.758;2022-07-11T03:28:37;101949.16;;;17.65;58.22
5651;BME280;40241;52.684;9.758;2022-07-11T03:31:03;101957.53;;;17.65;58.30
5651;BME280;40241;52.684;9.758;2022-07-11T03:33:29;101950.69;;;17.66;58.20
5651;BME280;40241;52.684;9.758;2022-07-11T03:35:54;101956.75;;;17.70;58.32
5651;BME280;40241;52.684;9.758;2022-07-11T03:38:20;101954.75;;;17.70;58.21
5651;BME280;40241;52.684;9.758;2022-07-11T03:40:46;101959.28;;;17.73;58.17
5651;BME280;40241;52.684;9.758;2022-07-11T03:43:13;101956.25;;;17.77;58.36
5651;BME280;40241;52.684;9.758;2022-07-11T03:45:39;101962.56;;;17.77;58.43
5651;BME280;40241;52.684;9.758;2022-07-11T03:48:05;101965.34;;;17.77;58.33
5651;BME280;40241;52.684;9.758;2022-07-11T03:50:31;101949.38;;;17.78;58.18
5651;BME280;40241;52.684;9.758;2022-07-11T03:52:56;101951.69;;;17.79;58.28
5651;BME280;40241;52.684;9.758;2022-07-11T03:55:22;101952.16;;;17.83;58.29
5651;BME280;40241;52.684;9.758;2022-07-11T03:57:47;101955.44;;;17.87;58.28
5651;BME280;40241;52.684;9.758;2022-07-11T04:00:13;101952.38;;;17.91;58.40
5651;BME280;40241;52.684;9.758;2022-07-11T04:02:39;101955.44;;;17.93;58.38
5651;BME280;40241;52.684;9.758;2022-07-11T04:05:05;101950.34;;;17.97;58.29
5651;BME280;40241;52.684;9.758;2022-07-11T04:07:31;101961.22;;;18.01;58.32
5651;BME280;40241;52.684;9.758;2022-07-11T04:09:56;101955.63;;;18.06;58.43
5651;BME280;40241;52.684;9.758;2022-07-11T04:12:22;101956.13;;;18.10;58.32
5651;BME280;40241;52.684;9.758;2022-07-11T04:14:47;101952.53;;;18.15;58.40
5651;BME280;40241;52.684;9.758;2022-07-11T04:17:13;101950.25;;;18.19;58.37
5651;BME280;40241;52.684;9.758;2022-07-11T04:19:39;101952.75;;;18.23;58.29
5651;BME280;40241;52.684;9.758;2022-07-11T04:22:05;101949.19;;;18.28;58.44
5651;BME280;40241;52.684;9.758;2022-07-11T04:24:30;101951.69;;;18.31;58.38
5651;BME280;40241;52.684;9.758;2022-07-11T04:26:55;101958.53;;;18.36;58.42
5651;BME280;40241;52.684;9.758;2022-07-11T04:29:21;101946.59;;;18.41;58.27
5651;BME280;40241;52.684;9.758;2022-07-11T04:31:47;101955.97;;;18.43;58.30
5651;BME280;40241;52.684;9.758;2022-07-11T04:34:12;101954.69;;;18.44;58.29
5651;BME280;40241;52.684;9.758;2022-07-11T04:36:38;101952.91;;;18.47;58.38
5651;BME280;40241;52.684;9.758;2022-07-11T04:39:04;101952.38;;;18.48;58.30
5651;BME280;40241;52.684;9.758;2022-07-11T04:41:29;101949.09;;;18.50;58.51
5651;BME280;40241;52.684;9.758;2022-07-11T04:43:54;101951.38;;;18.51;58.44
5651;BME280;40241;52.684;9.758;2022-07-11T04:46:20;101951.59;;;18.53;58.34
5651;BME280;40241;52.684;9.758;2022-07-11T04:48:45;101944.00;;;18.54;58.53
5651;BME280;40241;52.684;9.758;2022-07-11T04:51:10;101947.78;;;18.56;58.41
5651;BME280;40241;52.684;9.758;2022-07-11T04:53:36;101947.28;;;18.58;58.49
5651;BME280;40241;52.684;9.758;2022-07-11T04:56:02;101947.50;;;18.60;58.62
5651;BME280;40241;52.684;9.758;2022-07-11T04:58:28;101950.53;;;18.62;58.64
5651;BME280;40241;52.684;9.758;2022-07-11T05:00:57;101944.66;;;18.65;58.51
5651;BME280;40241;52.684;9.758;2022-07-11T05:03:22;101943.13;;;18.70;58.76
5651;BME280;40241;52.684;9.758;2022-07-11T05:05:47;101947.16;;;18.75;58.72
5651;BME280;40241;52.684;9.758;2022-07-11T05:08:13;101940.53;;;18.78;58.65
5651;BME280;40241;52.684;9.758;2022-07-11T05:10:38;101951.88;;;18.85;58.56
5651;BME280;40241;52.684;9.758;2022-07-11T05:13:03;101948.28;;;18.90;58.54
5651;BME280;40241;52.684;9.758;2022-07-11T05:15:30;101942.16;;;18.97;58.49
5651;BME280;40241;52.684;9.758;2022-07-11T05:17:56;101951.75;;;19.02;58.32
5651;BME280;40241;52.684;9.758;2022-07-11T05:20:21;101949.22;;;19.04;58.63
5651;BME280;40241;52.684;9.758;2022-07-11T05:22:47;101953.22;;;19.08;58.66
5651;BME280;40241;52.684;9.758;2022-07-11T05:25:12;101960.53;;;19.11;58.70
5651;BME280;40241;52.684;9.758;2022-07-11T05:27:37;101959.75;;;19.16;58.73
5651;BME280;40241;52.684;9.758;2022-07-11T05:30:03;101968.13;;;19.16;58.63
5651;BME280;40241;52.684;9.758;2022-07-11T05:32:29;101965.03;;;19.20;58.62
5651;BME280;40241;52.684;9.758;2022-07-11T05:34:55;101967.81;;;19.20;58.63
5651;BME280;40241;52.684;9.758;2022-07-11T05:37:23;101976.44;;;19.22;58.67
5651;BME280;40241;52.684;9.758;2022-07-11T05:39:48;101978.94;;;19.25;58.72
5651;BME280;40241;52.684;9.758;2022-07-11T05:42:15;101971.84;;;19.24;58.65
5651;BME280;40241;52.684;9.758;2022-07-11T05:44:41;101978.47;;;19.21;58.75
5651;BME280;40241;52.684;9.758;2022-07-11T05:47:06;101975.91;;;19.23;58.82
5651;BME280;40241;52.684;9.758;2022-07-11T05:49:32;101974.41;;;19.22;58.86
5651;BME280;40241;52.684;9.758;2022-07-11T05:51:57;101971.84;;;19.24;58.79
5651;BME280;40241;52.684;9.758;2022-07-11T05:54:23;101981.66;;;19.31;58.71
5651;BME280;40241;52.684;9.758;2022-07-11T05:56:48;101988.03;;;19.31;58.59
5651;BME280;40241;52.684;9.758;2022-07-11T05:59:14;101978.38;;;19.32;58.65
5651;BME280;40241;52.684;9.758;2022-07-11T06:01:40;101989.00;;;19.39;58.63
5651;BME280;40241;52.684;9.758;2022-07-11T06:04:05;101987.94;;;19.42;58.49
5651;BME280;40241;52.684;9.758;2022-07-11T06:06:31;101986.91;;;19.46;58.49
5651;BME280;40241;52.684;9.758;2022-07-11T06:08:57;101986.34;;;19.53;58.47
5651;BME280;40241;52.684;9.758;2022-07-11T06:11:22;101990.09;;;19.55;58.39
5651;BME280;40241;52.684;9.758;2022-07-11T06:13:48;101989.59;;;19.57;58.46
5651;BME280;40241;52.684;9.758;2022-07-11T06:16:17;101990.59;;;19.59;58.52
5651;BME280;40241;52.684;9.758;2022-07-11T06:18:42;101988.75;;;19.62;58.44
5651;BME280;40241;52.684;9.758;2022-07-11T06:21:08;101985.94;;;19.67;58.28
5651;BME280;40241;52.684;9.758;2022-07-11T06:23:34;101979.59;;;19.67;58.58
5651;BME280;40241;52.684;9.758;2022-07-11T06:26:00;101980.34;;;19.67;58.46
5651;BME280;40241;52.684;9.758;2022-07-11T06:28:26;101979.28;;;19.70;58.42
5651;BME280;40241;52.684;9.758;2022-07-11T06:30:51;101989.09;;;19.77;58.32
5651;BME280;40241;52.684;9.758;2022-07-11T06:33:18;101976.91;;;19.80;58.17
5651;BME280;40241;52.684;9.758;2022-07-11T06:35:44;101980.50;;;19.75;58.15
5651;BME280;40241;52.684;9.758;2022-07-11T06:38:11;101989.94;;;19.72;58.24
5651;BME280;40241;52.684;9.758;2022-07-11T06:40:37;101986.31;;;19.77;58.16
5651;BME280;40241;52.684;9.758;2022-07-11T06:43:02;101987.50;;;19.87;58.40
5651;BME280;40241;52.684;9.758;2022-07-11T06:45:28;101979.44;;;20.02;58.37
5651;BME280;40241;52.684;9.758;2022-07-11T06:47:53;101988.28;;;20.06;57.83
5651;BME280;40241;52.684;9.758;2022-07-11T06:50:19;101986.84;;;19.99;57.78
5651;BME280;40241;52.684;9.758;2022-07-11T06:52:44;101984.41;;;19.90;57.93
5651;BME280;40241;52.684;9.758;2022-07-11T06:55:12;101985.28;;;19.80;58.03
5651;BME280;40241;52.684;9.758;2022-07-11T06:57:37;101989.81;;;19.83;58.13
5651;BME280;40241;52.684;9.758;2022-07-11T07:00:04;101983.78;;;19.79;57.82
5651;BME280;40241;52.684;9.758;2022-07-11T07:02:29;101987.03;;;19.83;57.89
5651;BME280;40241;52.684;9.758;2022-07-11T07:04:56;101989.47;;;19.92;57.87
5651;BME280;40241;52.684;9.758;2022-07-11T07:07:23;101989.31;;;20.03;57.76
5651;BME280;40241;52.684;9.758;2022-07-11T07:09:49;101989.25;;;20.08;57.80
5651;BME280;40241;52.684;9.758;2022-07-11T07:12:14;101990.41;;;20.18;57.59
5651;BME280;40241;52.684;9.758;2022-07-11T07:14:40;101994.63;;;20.31;57.64
5651;BME280;40241;52.684;9.758;2022-07-11T07:17:06;101992.03;;;20.33;57.44
5651;BME280;40241;52.684;9.758;2022-07-11T07:19:31;102001.63;;;20.37;57.15
5651;BME280;40241;52.684;9.758;2022-07-11T07:21:57;101994.75;;;20.38;57.02
5651;BME280;40241;52.684;9.758;2022-07-11T07:24:22;102001.91;;;20.34;56.82
5651;BME280;40241;52.684;9.758;2022-07-11T07:26:47;101998.75;;;20.24;57.19
5651;BME280;40241;52.684;9.758;2022-07-11T07:29:13;102000.31;;;20.19;57.12
5651;BME280;40241;52.684;9.758;2022-07-11T07:31:38;102004.22;;;20.11;57.30
5651;BME280;40241;52.684;9.758;2022-07-11T07:34:03;102009.41;;;20.01;57.63
5651;BME280;40241;52.684;9.758;2022-07-11T07:36:30;102015.34;;;19.92;57.96
5651;BME280;40241;52.684;9.758;2022-07-11T07:38:55;102007.28;;;19.89;58.19
5651;BME280;40241;52.684;9.758;2022-07-11T07:41:21;102012.63;;;19.87;58.09
5651;BME280;40241;52.684;9.758;2022-07-11T07:43:46;102010.38;;;19.85;58.45
5651;BME280;40241;52.684;9.758;2022-07-11T07:46:14;102016.94;;;19.88;58.25
5651;BME280;40241;52.684;9.758;2022-07-11T07:48:39;102018.44;;;19.89;58.45
5651;BME280;40241;52.684;9.758;2022-07-11T07:51:04;102018.69;;;19.91;58.36
5651;BME280;40241;52.684;9.758;2022-07-11T07:53:30;102021.16;;;19.94;58.44
5651;BME280;40241;52.684;9.758;2022-07-11T07:55:55;102019.81;;;20.01;58.44
5651;BME280;40241;52.684;9.758;2022-07-11T07:58:21;102027.47;;;20.00;58.32
5651;BME280;40241;52.684;9.758;2022-07-11T08:00:46;102027.81;;;19.91;58.41
5651;BME280;40241;52.684;9.758;2022-07-11T08:03:30;102026.88;;;19.83;58.70
5651;BME280;40241;52.684;9.758;2022-07-11T08:05:56;102022.88;;;19.79;58.80
5651;BME280;40241;52.684;9.758;2022-07-11T08:08:22;102035.31;;;19.78;58.82
5651;BME280;40241;52.684;9.758;2022-07-11T08:10:47;102030.31;;;19.71;58.99
5651;BME280;40241;52.684;9.758;2022-07-11T08:13:12;102038.53;;;19.63;58.95
5651;BME280;40241;52.684;9.758;2022-07-11T08:15:38;102045.00;;;19.47;59.05
5651;BME280;40241;52.684;9.758;2022-07-11T08:18:03;102038.25;;;19.37;59.08
5651;BME280;40241;52.684;9.758;2022-07-11T08:20:29;102044.13;;;19.28;59.16
5651;BME280;40241;52.684;9.758;2022-07-11T08:23:01;102047.41;;;19.26;59.62
5651;BME280;40241;52.684;9.758;2022-07-11T08:25:27;102045.16;;;19.25;59.47
5651;BME280;40241;52.684;9.758;2022-07-11T08:27:53;102045.38;;;19.27;59.61
5651;BME280;40241;52.684;9.758;2022-07-11T08:30:18;102048.66;;;19.36;59.59
5651;BME280;40241;52.684;9.758;2022-07-11T08:32:43;102052.63;;;19.47;59.40
5651;BME280;40241;52.684;9.758;2022-07-11T08:35:09;102047.75;;;19.53;59.42
5651;BME280;40241;52.684;9.758;2022-07-11T08:37:36;102051.72;;;19.63;59.29
5651;BME280;40241;52.684;9.758;2022-07-11T08:40:02;102060.81;;;19.69;59.61
5651;BME280;40241;52.684;9.758;2022-07-11T08:42:29;102055.09;;;19.80;59.62
5651;BME280;40241;52.684;9.758;2022-07-11T08:44:57;102057.31;;;19.87;59.41
5651;BME280;40241;52.684;9.758;2022-07-11T08:47:23;102057.72;;;19.96;59.40
5651;BME280;40241;52.684;9.758;2022-07-11T08:49:49;102054.66;;;20.00;59.21
5651;BME280;40241;52.684;9.758;2022-07-11T08:52:16;102059.06;;;20.14;59.12
5651;BME280;40241;52.684;9.758;2022-07-11T08:54:44;102065.75;;;20.30;59.05
5651;BME280;40241;52.684;9.758;2022-07-11T08:57:10;102057.03;;;20.39;58.73
5651;BME280;40241;52.684;9.758;2022-07-11T08:59:36;102045.31;;;20.40;58.88
5651;BME280;40241;52.684;9.758;2022-07-11T09:02:06;102049.63;;;20.41;58.98
5651;BME280;40241;52.684;9.758;2022-07-11T09:04:33;102048.84;;;20.41;58.98
5651;BME280;40241;52.684;9.758;2022-07-11T09:07:00;102039.56;;;20.51;58.84
5651;BME280;40241;52.684;9.758;2022-07-11T09:09:26;102046.44;;;20.69;58.68
5651;BME280;40241;52.684;9.758;2022-07-11T09:11:53;102051.59;;;20.83;58.41
5651;BME280;40241;52.684;9.758;2022-07-11T09:14:29;102046.81;;;20.97;58.19
5651;BME280;40241;52.684;9.758;2022-07-11T09:16:59;102041.38;;;21.05;57.89
5651;BME280;40241;52.684;9.758;2022-07-11T09:19:29;102046.16;;;21.10;57.93
5651;BME280;40241;52.684;9.758;2022-07-11T09:22:13;102040.78;;;21.12;57.80
5651;BME280;40241;52.684;9.758;2022-07-11T09:33:00;102038.44;;;21.29;57.91
5651;BME280;40241;52.684;9.758;2022-07-11T09:35:31;102036.13;;;21.46;58.05
5651;BME280;40241;52.684;9.758;2022-07-11T09:37:57;102037.56;;;21.65;57.79
5651;BME280;40241;52.684;9.758;2022-07-11T09:40:23;102038.25;;;21.85;57.18
5651;BME280;40241;52.684;9.758;2022-07-11T09:42:50;102040.31;;;21.97;57.11
5651;BME280;40241;52.684;9.758;2022-07-11T09:45:17;102036.63;;;21.89;56.90
5651;BME280;40241;52.684;9.758;2022-07-11T09:47:52;102030.91;;;21.82;56.92
5651;BME280;40241;52.684;9.758;2022-07-11T09:50:23;102032.34;;;21.88;56.78
5651;BME280;40241;52.684;9.758;2022-07-11T09:53:10;102036.22;;;21.98;56.86
5651;BME280;40241;52.684;9.758;2022-07-11T09:55:38;102034.59;;;22.03;56.75
5651;BME280;40241;52.684;9.758;2022-07-11T09:58:07;102035.16;;;22.01;56.58
5651;BME280;40241;52.684;9.758;2022-07-11T10:00:34;102036.63;;;22.02;56.41
5651;BME280;40241;52.684;9.758;2022-07-11T10:03:00;102038.16;;;22.03;56.57
5651;BME280;40241;52.684;9.758;2022-07-11T10:05:26;102041.38;;;22.07;56.40
5651;BME280;40241;52.684;9.758;2022-07-11T10:07:52;102047.63;;;22.13;56.48
5651;BME280;40241;52.684;9.758;2022-07-11T10:10:17;102044.19;;;22.20;56.25
5651;BME280;40241;52.684;9.758;2022-07-11T10:12:46;102039.84;;;22.19;55.75
5651;BME280;40241;52.684;9.758;2022-07-11T10:15:15;102040.31;;;22.23;55.80
5651;BME280;40241;52.684;9.758;2022-07-11T10:26:10;102025.63;;;22.77;54.96
5651;BME280;40241;52.684;9.758;2022-07-11T10:28:46;102029.88;;;22.71;54.70
5651;BME280;40241;52.684;9.758;2022-07-11T10:31:23;102024.38;;;22.65;54.71
5651;BME280;40241;52.684;9.758;2022-07-11T10:34:04;102025.56;;;22.57;54.61
5651;BME280;40241;52.684;9.758;2022-07-11T10:36:35;102028.16;;;22.55;55.35
5651;BME280;40241;52.684;9.758;2022-07-11T10:39:18;102021.47;;;22.58;54.85
5651;BME280;40241;52.684;9.758;2022-07-11T10:41:46;102030.88;;;22.60;55.12
5651;BME280;40241;52.684;9.758;2022-07-11T10:44:12;102027.31;;;22.60;54.96
5651;BME280;40241;52.684;9.758;2022-07-11T10:46:37;102031.28;;;22.64;54.91
5651;BME280;40241;52.684;9.758;2022-07-11T10:57:09;102032.44;;;23.02;54.25
5651;BME280;40241;52.684;9.758;2022-07-11T11:02:26;102040.13;;;23.02;54.27
5651;BME280;40241;52.684;9.758;2022-07-11T11:04:53;102048.66;;;22.96;54.24
5651;BME280;40241;52.684;9.758;2022-07-11T11:10:04;102040.19;;;22.89;54.43
5651;BME280;40241;52.684;9.758;2022-07-11T11:15:53;102051.34;;;23.02;53.73
5651;BME280;40241;52.684;9.758;2022-07-11T11:26:17;102041.44;;;23.22;54.02
5651;BME280;40241;52.684;9.758;2022-07-11T11:31:22;102051.19;;;23.41;53.63
5651;BME280;40241;52.684;9.758;2022-07-11T11:33:48;102046.19;;;23.47;53.42
5651;BME280;40241;52.684;9.758;2022-07-11T11:36:16;102039.13;;;23.54;53.27
5651;BME280;40241;52.684;9.758;2022-07-11T11:38:44;102052.28;;;23.59;53.28
5651;BME280;40241;52.684;9.758;2022-07-11T11:41:13;102040.28;;;23.58;52.91
5651;BME280;40241;52.684;9.758;2022-07-11T11:43:43;102050.75;;;23.58;52.72
5651;BME280;40241;52.684;9.758;2022-07-11T11:46:11;102048.50;;;23.56;53.15
5651;BME280;40241;52.684;9.758;2022-07-11T11:48:37;102044.38;;;23.57;52.82
5651;BME280;40241;52.684;9.758;2022-07-11T11:51:05;102056.94;;;23.56;53.09
5651;BME280;40241;52.684;9.758;2022-07-11T11:56:25;102043.94;;;23.46;53.16
5651;BME280;40241;52.684;9.758;2022-07-11T11:58:59;102046.19;;;23.47;53.30
5651;BME280;40241;52.684;9.758;2022-07-11T12:01:30;102045.81;;;23.51;53.41
5651;BME280;40241;52.684;9.758;2022-07-11T12:03:57;102049.59;;;23.53;53.01
5651;BME280;40241;52.684;9.758;2022-07-11T12:08:49;102060.72;;;23.38;53.33
5651;BME280;40241;52.684;9.758;2022-07-11T12:11:16;102057.25;;;23.32;53.75
5651;BME280;40241;52.684;9.758;2022-07-11T12:13:42;102053.84;;;23.26;54.11
5651;BME280;40241;52.684;9.758;2022-07-11T12:16:14;102047.47;;;23.26;54.40
5651;BME280;40241;52.684;9.758;2022-07-11T12:19:03;102049.81;;;23.35;54.64
5651;BME280;40241;52.684;9.758;2022-07-11T12:21:30;102038.72;;;23.50;54.67
5651;BME280;40241;52.684;9.758;2022-07-11T12:24:00;102038.06;;;23.64;54.69
5651;BME280;40241;52.684;9.758;2022-07-11T12:26:31;102036.81;;;23.73;54.17
5651;BME280;40241;52.684;9.758;2022-07-11T12:31:41;102037.16;;;23.69;54.06
5651;BME280;40241;52.684;9.758;2022-07-11T12:34:06;102041.22;;;23.61;53.87
5651;BME280;40241;52.684;9.758;2022-07-11T12:36:32;102040.97;;;23.51;54.24
5651;BME280;40241;52.684;9.758;2022-07-11T12:38:58;102040.34;;;23.45;54.08
5651;BME280;40241;52.684;9.758;2022-07-11T12:41:23;102042.34;;;23.37;54.28
5651;BME280;40241;52.684;9.758;2022-07-11T12:43:50;102043.75;;;23.31;54.61
5651;BME280;40241;52.684;9.758;2022-07-11T12:46:35;102048.22;;;23.26;54.84
5651;BME280;40241;52.684;9.758;2022-07-11T12:49:03;102041.50;;;23.29;54.94
5651;BME280;40241;52.684;9.758;2022-07-11T12:51:34;102037.47;;;23.38;54.86
5651;BME280;40241;52.684;9.758;2022-07-11T12:54:04;102028.50;;;23.39;54.79
5651;BME280;40241;52.684;9.758;2022-07-11T12:56:30;102028.75;;;23.49;54.55
5651;BME280;40241;52.684;9.758;2022-07-11T12:58:56;102033.34;;;23.59;54.09
5651;BME280;40241;52.684;9.758;2022-07-11T13:01:21;102034.38;;;23.69;54.04
5651;BME280;40241;52.684;9.758;2022-07-11T13:03:47;102024.69;;;23.78;54.05
5651;BME280;40241;52.684;9.758;2022-07-11T13:06:15;102022.81;;;23.80;53.52
5651;BME280;40241;52.684;9.758;2022-07-11T13:08:40;102020.53;;;23.79;53.68
5651;BME280;40241;52.684;9.758;2022-07-11T13:11:12;102022.41;;;23.76;53.71
5651;BME280;40241;52.684;9.758;2022-07-11T13:13:37;102019.81;;;23.78;53.91
5651;BME280;40241;52.684;9.758;2022-07-11T13:16:03;102026.56;;;23.83;53.67
5651;BME280;40241;52.684;9.758;2022-07-11T13:18:30;102026.22;;;23.87;53.75
5651;BME280;40241;52.684;9.758;2022-07-11T13:20:56;102024.38;;;23.89;53.69
5651;BME280;40241;52.684;9.758;2022-07-11T13:23:21;102025.84;;;23.90;53.73
5651;BME280;40241;52.684;9.758;2022-07-11T13:25:47;102024.56;;;23.91;53.78
5651;BME280;40241;52.684;9.758;2022-07-11T13:28:12;102031.75;;;24.00;53.78
5651;BME280;40241;52.684;9.758;2022-07-11T13:30:39;102030.88;;;24.05;53.25
5651;BME280;40241;52.684;9.758;2022-07-11T13:33:04;102029.75;;;24.08;53.20
5651;BME280;40241;52.684;9.758;2022-07-11T13:35:30;102028.09;;;24.12;53.19
5651;BME280;40241;52.684;9.758;2022-07-11T13:37:55;102025.84;;;24.18;52.92
5651;BME280;40241;52.684;9.758;2022-07-11T13:40:22;102022.91;;;24.24;52.80
5651;BME280;40241;52.684;9.758;2022-07-11T13:42:48;102028.72;;;24.26;52.89
5651;BME280;40241;52.684;9.758;2022-07-11T13:45:19;102023.84;;;24.26;52.85
5651;BME280;40241;52.684;9.758;2022-07-11T13:47:46;102024.56;;;24.19;52.85
5651;BME280;40241;52.684;9.758;2022-07-11T13:50:12;102024.16;;;24.15;53.03